Belva, WV (26656)

11:43 PM EDT on September 01, 2015 (GMT -0400)
Bonnie | | Change Station
CLOSE
Current Station
Personal Weather Station
Location: Gauley Bridge, WV
Elevation: 807 ft
Nearby Weather Stations

Elev 807 ft 38.17 °N, 81.19 °W | Updated 1 second ago

Partly Cloudy
Partly Cloudy
68.4 °F
Feels Like 68.4 °F
N
0.0
Wind Variable Wind from SE
Gusts 0.0 mph

Today
High -- | Low -- °F
--% Chance of Precip.
Yesterday
High -- | Low -- °F
Precip. -- in
6:53 AM 7:54 PM
Waning Gibbous, 84% visible
Pressure 30.09 in
Visibility 7.0 miles
Clouds Few 20000 ft
Dew Point 67 °F
Humidity 96%
Rainfall 0.00 in
Snow Depth Not available.
UV 0 out of 12
Pollen 9.70 out of 12
Air Quality Not available.
Flu Activity Not available.
METAR KCRW 020254Z 00000KT 7SM FEW200 22/19 A3012 RMK AO2 SLP190 T02220194 51009
Pressure 30.09 in
Visibility 7.0 miles
Clouds Few 20000 ft
Dew Point 67 °F
Humidity 96%
Rainfall 0.00 in
Snow Depth Not available.
UV 0 out of 12
Pollen 9.70 out of 12
Air Quality Not available.
Flu Activity Not available.
METAR KCRW 020254Z 00000KT 7SM FEW200 22/19 A3012 RMK AO2 SLP190 T02220194 51009

10-Day Weather Forecast

×

Almanac

Astronomy

Sep. 01, 2015 Rise Set
Actual Time
Civil Twilight
Nautical Twilight
Astronomical Twilight
Moon
Length of Visible Light
Length of Day
Tomorrow will be .
, % of the Moon is Illuminated

Today's Extremes

State Highs State Lows

Community

WunderPhotos

Upload Photos

1,851,690 photos uploaded!

WunderBlogs® & News

Nearby

Air Quality

  Air Quality AQ Index Pollutant
Not available.

Snow Depth

Station Depth Elevation

Earthquake Activity

City Distance Mag. Time & Date
Minimum magnitude displayed is 2.5.

Coastal Water Temperatures

Place Temperature

Stations

Nearby Weather Stations

Station Location Temp. Windchill Dew Point Humidity Wind Precip. Elev Updated Type